createdAt,value
2019-01-13T00:01:49.322Z,100322.57
2019-01-13T00:04:18.306Z,100317.39
2019-01-13T00:06:47.319Z,100309.33
2019-01-13T00:09:16.377Z,100302.25
2019-01-13T00:11:45.431Z,100304.34
2019-01-13T00:14:14.560Z,100301.47
2019-01-13T00:16:43.588Z,100307.38
2019-01-13T00:19:12.640Z,100299.77
2019-01-13T00:21:41.694Z,100298.94
2019-01-13T00:24:10.749Z,100290.94
2019-01-13T00:26:39.760Z,100274.44
2019-01-13T00:29:08.815Z,100267.73
2019-01-13T00:31:37.842Z,100266.53
2019-01-13T00:34:06.847Z,100267.95
2019-01-13T00:36:35.897Z,100272.55
2019-01-13T00:39:07.696Z,100259.05
2019-01-13T00:41:36.788Z,100266.56
2019-01-13T00:44:05.807Z,100264.00
2019-01-13T00:46:34.821Z,100258.53
2019-01-13T00:49:03.887Z,100260.23
2019-01-13T00:51:32.942Z,100261.16
2019-01-13T00:54:04.035Z,100264.98
2019-01-13T00:56:32.733Z,100259.62
2019-01-13T00:59:01.790Z,100269.30
2019-01-13T01:01:30.800Z,100262.88
2019-01-13T01:03:59.862Z,100265.33
2019-01-13T01:06:28.880Z,100270.39
2019-01-13T01:08:57.992Z,100270.33
2019-01-13T01:11:27.043Z,100258.72
2019-01-13T01:13:56.114Z,100246.45
2019-01-13T01:16:25.143Z,100237.69
2019-01-13T01:18:54.148Z,100249.92
2019-01-13T01:21:23.203Z,100246.12
2019-01-13T01:23:52.211Z,100257.20
2019-01-13T01:26:21.629Z,100246.18
2019-01-13T01:28:50.646Z,100252.17
2019-01-13T01:31:19.759Z,100244.26
2019-01-13T01:33:48.646Z,100245.70
2019-01-13T01:36:17.698Z,100235.35
2019-01-13T01:38:46.722Z,100242.55
2019-01-13T01:41:15.786Z,100246.40
2019-01-13T01:43:44.795Z,100253.45
2019-01-13T01:46:13.854Z,100248.81
2019-01-13T01:48:42.906Z,100256.23
2019-01-13T01:51:12.342Z,100264.12
2019-01-13T01:53:41.400Z,100267.45
2019-01-13T01:56:10.505Z,100251.80
2019-01-13T01:58:39.534Z,100262.67
2019-01-13T02:01:08.804Z,100260.55
2019-01-13T02:03:38.171Z,100256.66
2019-01-13T02:06:07.146Z,100249.33
2019-01-13T02:08:36.580Z,100246.80
2019-01-13T02:11:05.634Z,100248.03
2019-01-13T02:13:34.995Z,100243.30
2019-01-13T02:16:04.114Z,100236.94
2019-01-13T02:18:33.125Z,100236.07
2019-01-13T02:21:02.230Z,100238.88
2019-01-13T02:23:31.276Z,100237.30
2019-01-13T02:26:00.259Z,100238.44
2019-01-13T02:28:29.628Z,100248.14
2019-01-13T02:30:58.643Z,100230.67
2019-01-13T02:33:27.657Z,100230.67
2019-01-13T02:35:56.714Z,100234.88
2019-01-13T02:38:25.743Z,100231.58
2019-01-13T02:40:55.120Z,100224.73
2019-01-13T02:43:24.125Z,100224.20
2019-01-13T02:45:53.149Z,100231.04
2019-01-13T02:48:22.200Z,100231.54
2019-01-13T02:50:51.246Z,100222.27
2019-01-13T02:53:20.341Z,100215.94
2019-01-13T02:55:49.349Z,100219.80
2019-01-13T02:58:18.362Z,100209.93
2019-01-13T03:00:47.442Z,100204.94
2019-01-13T03:03:16.491Z,100198.53
2019-01-13T03:05:45.841Z,100196.06
2019-01-13T03:08:14.907Z,100190.05
2019-01-13T03:10:43.952Z,100197.70
2019-01-13T03:13:13.016Z,100195.09
2019-01-13T03:15:42.021Z,100187.92
2019-01-13T03:18:11.747Z,100180.92
2019-01-13T03:20:40.871Z,100171.59
2019-01-13T03:23:09.901Z,100182.92
2019-01-13T03:25:38.960Z,100179.16
2019-01-13T03:28:07.980Z,100169.55
2019-01-13T03:30:36.994Z,100177.45
2019-01-13T03:33:06.306Z,100169.34
2019-01-13T03:35:35.366Z,100167.28
2019-01-13T03:38:05.380Z,100168.80
2019-01-13T03:40:34.432Z,100156.17
2019-01-13T03:43:03.446Z,100164.97
2019-01-13T03:45:32.619Z,100159.50
2019-01-13T03:48:01.632Z,100164.64
2019-01-13T03:50:30.969Z,100153.70
2019-01-13T03:53:00.046Z,100146.94
2019-01-13T03:55:29.065Z,100144.91
2019-01-13T03:57:58.078Z,100130.57
2019-01-13T04:00:27.229Z,100129.23
2019-01-13T04:02:56.544Z,100128.77
2019-01-13T04:05:25.641Z,100124.96
2019-01-13T04:07:54.765Z,100120.69
2019-01-13T04:10:24.067Z,100109.53
2019-01-13T04:12:53.161Z,100108.23
2019-01-13T04:16:02.666Z,100101.93
2019-01-13T04:18:31.742Z,100100.63
2019-01-13T04:21:00.820Z,100097.18
2019-01-13T04:23:29.877Z,100087.04
2019-01-13T04:25:58.892Z,100083.99
2019-01-13T04:28:27.959Z,100080.98
2019-01-13T04:30:57.027Z,100083.88
2019-01-13T04:33:26.029Z,100086.89
2019-01-13T04:35:55.056Z,100082.33
2019-01-13T04:38:24.807Z,100089.82
2019-01-13T04:40:54.162Z,100089.47
2019-01-13T04:43:23.217Z,100089.11
2019-01-13T04:45:52.241Z,100082.33
2019-01-13T04:48:21.342Z,100090.77
2019-01-13T04:50:50.358Z,100075.64
2019-01-13T04:53:19.339Z,100065.57
2019-01-13T04:55:48.354Z,100067.23
2019-01-13T04:58:17.400Z,100062.32
2019-01-13T05:00:46.408Z,100059.70
2019-01-13T05:03:15.734Z,100053.41
2019-01-13T05:05:44.746Z,100053.84
2019-01-13T05:08:13.756Z,100052.18
2019-01-13T05:10:42.811Z,100050.52
2019-01-13T05:13:11.861Z,100050.08
2019-01-13T05:15:40.905Z,100042.33
2019-01-13T05:18:09.951Z,100037.14
2019-01-13T05:20:40.319Z,100020.27
2019-01-13T05:23:09.446Z,100019.63
2019-01-13T05:25:38.866Z,100017.45
2019-01-13T05:28:07.875Z,100007.78
2019-01-13T05:30:37.316Z,100005.84
2019-01-13T05:33:06.342Z,99997.83
2019-01-13T05:35:35.343Z,99983.41
2019-01-13T05:38:04.598Z,99978.28
2019-01-13T05:40:33.629Z,99969.32
2019-01-13T05:43:02.677Z,99969.80
2019-01-13T05:45:31.760Z,99955.81
2019-01-13T05:48:00.779Z,99949.91
2019-01-13T05:50:29.790Z,99934.22
2019-01-13T05:52:58.833Z,99930.89
2019-01-13T05:55:28.030Z,99920.00
2019-01-13T05:57:57.068Z,99919.53
2019-01-13T06:00:28.276Z,99917.82
2019-01-13T06:02:57.284Z,99906.51
2019-01-13T06:05:26.308Z,99903.97
2019-01-13T06:07:55.362Z,99900.16
2019-01-13T06:10:24.400Z,99895.53
2019-01-13T06:12:53.439Z,99883.23
2019-01-13T06:15:24.046Z,99882.84
2019-01-13T06:17:53.150Z,99881.92
2019-01-13T06:20:24.000Z,99887.78
2019-01-13T06:22:53.017Z,99872.66
2019-01-13T06:25:22.477Z,99868.41
2019-01-13T06:27:51.485Z,99865.84
2019-01-13T06:30:24.224Z,99846.73
2019-01-13T06:32:53.427Z,99847.42
2019-01-13T06:35:22.535Z,99843.48
2019-01-13T06:37:51.926Z,99826.99
2019-01-13T06:40:22.355Z,99833.77
2019-01-13T06:42:51.525Z,99830.66
2019-01-13T06:45:27.345Z,99829.30
2019-01-13T06:47:56.391Z,99810.84
2019-01-13T06:50:25.543Z,99814.12
2019-01-13T06:52:54.581Z,99802.22
2019-01-13T06:55:23.646Z,99791.69
2019-01-13T06:57:52.667Z,99786.95
2019-01-13T07:00:26.645Z,99781.00
2019-01-13T07:02:56.303Z,99779.05
2019-01-13T07:05:25.613Z,99773.39
2019-01-13T07:07:54.650Z,99773.00
2019-01-13T07:10:23.927Z,99767.73
2019-01-13T07:12:53.026Z,99761.98
2019-01-13T07:15:22.280Z,99750.85
2019-01-13T07:17:51.345Z,99747.05
2019-01-13T07:20:21.632Z,99741.59
2019-01-13T07:22:50.803Z,99735.63
2019-01-13T07:25:19.852Z,99729.39
2019-01-13T07:27:48.908Z,99717.88
2019-01-13T07:30:23.114Z,99716.80
2019-01-13T07:32:52.187Z,99711.23
2019-01-13T07:35:21.192Z,99704.45
2019-01-13T07:37:50.233Z,99701.08
2019-01-13T07:40:20.934Z,99692.00
2019-01-13T07:42:50.061Z,99700.48
2019-01-13T07:45:23.979Z,99700.00
2019-01-13T07:47:53.072Z,99698.94
2019-01-13T07:50:22.107Z,99692.48
2019-01-13T07:52:51.109Z,99675.33
2019-01-13T07:55:21.753Z,99662.59
2019-01-13T07:57:50.893Z,99652.48
2019-01-13T08:00:28.240Z,99642.34
2019-01-13T08:02:57.333Z,99646.12
2019-01-13T08:05:26.343Z,99636.03
2019-01-13T08:07:55.281Z,99636.26
2019-01-13T08:10:24.325Z,99627.82
2019-01-13T08:12:53.368Z,99614.59
2019-01-13T08:15:22.488Z,99614.59
2019-01-13T08:17:51.428Z,99608.86
2019-01-13T08:20:31.438Z,99599.98
2019-01-13T08:23:00.452Z,99596.28
2019-01-13T08:25:29.819Z,99591.11
2019-01-13T08:27:59.169Z,99590.22
2019-01-13T08:30:28.428Z,99586.70
2019-01-13T08:32:57.544Z,99577.44
2019-01-13T08:35:26.667Z,99576.72
2019-01-13T08:37:55.732Z,99566.17
2019-01-13T08:40:24.790Z,99567.28
2019-01-13T08:42:53.820Z,99567.16
2019-01-13T08:45:22.892Z,99560.13
2019-01-13T08:47:51.948Z,99548.14
2019-01-13T08:50:22.642Z,99550.95
2019-01-13T08:52:51.696Z,99529.73
2019-01-13T08:55:21.242Z,99531.70
2019-01-13T08:57:50.297Z,99529.11
2019-01-13T09:00:24.366Z,99529.25
2019-01-13T09:02:53.410Z,99532.89
2019-01-13T09:05:22.632Z,99528.25
2019-01-13T09:07:51.864Z,99518.27
2019-01-13T09:10:20.871Z,99512.37
2019-01-13T09:12:56.400Z,99515.02
2019-01-13T09:15:22.256Z,99509.89
2019-01-13T09:17:51.622Z,99518.13
2019-01-13T09:20:28.737Z,99511.98
2019-01-13T09:22:59.331Z,99501.95
2019-01-13T09:25:28.929Z,99507.70
2019-01-13T09:27:57.966Z,99497.93
2019-01-13T09:30:28.455Z,99495.98
2019-01-13T09:32:57.741Z,99486.83
2019-01-13T09:35:27.286Z,99478.20
2019-01-13T09:37:56.399Z,99486.27
2019-01-13T09:40:30.461Z,99466.16
2019-01-13T09:43:00.633Z,99482.54
2019-01-13T09:45:29.706Z,99478.67
2019-01-13T09:47:58.767Z,99476.83
2019-01-13T09:50:27.864Z,99482.28
2019-01-13T09:52:56.885Z,99479.09
2019-01-13T09:55:26.311Z,99475.87
2019-01-13T09:57:55.373Z,99461.02
2019-01-13T10:00:35.014Z,99466.53
2019-01-13T10:03:04.555Z,99469.78
2019-01-13T10:05:33.570Z,99460.06
2019-01-13T10:08:02.624Z,99463.23
2019-01-13T10:10:31.864Z,99454.09
2019-01-13T10:13:01.223Z,99457.64
2019-01-13T10:15:30.299Z,99453.02
2019-01-13T10:17:59.348Z,99443.81
2019-01-13T10:20:28.356Z,99441.34
2019-01-13T10:22:57.393Z,99439.18
2019-01-13T10:25:26.435Z,99433.72
2019-01-13T10:27:55.441Z,99431.18
2019-01-13T10:30:29.322Z,99433.39
2019-01-13T10:32:58.464Z,99423.38
2019-01-13T10:35:27.972Z,99414.67
2019-01-13T10:37:57.037Z,99409.15
2019-01-13T10:40:28.153Z,99395.43
2019-01-13T10:42:57.428Z,99388.38
2019-01-13T10:45:26.532Z,99381.45
2019-01-13T10:47:55.835Z,99381.20
2019-01-13T10:50:27.287Z,99378.41
2019-01-13T10:52:58.341Z,99377.40
2019-01-13T10:55:27.363Z,99386.22
2019-01-13T10:57:56.396Z,99371.55
2019-01-13T11:00:30.655Z,99367.63
2019-01-13T11:03:02.258Z,99370.22
2019-01-13T11:05:30.402Z,99354.54
2019-01-13T11:07:59.460Z,99354.16
2019-01-13T11:10:28.473Z,99313.09
2019-01-13T11:12:57.521Z,99322.09
2019-01-13T11:15:26.544Z,99321.02
2019-01-13T11:17:55.603Z,99315.82
2019-01-13T11:20:36.196Z,99311.38
2019-01-13T11:23:05.929Z,99310.80
2019-01-13T11:25:35.077Z,99306.41
2019-01-13T11:28:04.896Z,99296.80
2019-01-13T11:30:34.268Z,99297.23
2019-01-13T11:33:09.303Z,99296.09
2019-01-13T11:35:34.573Z,99280.09
2019-01-13T11:38:03.838Z,99283.26
2019-01-13T11:40:33.227Z,99278.55
2019-01-13T11:43:02.241Z,99280.69
2019-01-13T11:45:31.333Z,99275.75
2019-01-13T11:48:00.380Z,99278.59
2019-01-13T11:50:29.415Z,99255.93
2019-01-13T11:52:58.421Z,99259.44
2019-01-13T11:55:27.469Z,99249.75
2019-01-13T11:57:57.641Z,99236.77
2019-01-13T12:00:52.871Z,99247.98
2019-01-13T12:03:21.940Z,99248.70
2019-01-13T12:05:50.952Z,99239.42
2019-01-13T12:08:19.982Z,99237.33
2019-01-13T12:10:49.033Z,99236.55
2019-01-13T12:13:18.044Z,99226.28
2019-01-13T12:15:47.091Z,99216.40
2019-01-13T12:18:16.095Z,99204.22
2019-01-13T12:20:45.151Z,99214.05
2019-01-13T12:23:14.529Z,99191.27
2019-01-13T12:25:43.583Z,99201.84
2019-01-13T12:28:12.596Z,99205.94
2019-01-13T12:30:41.661Z,99177.38
2019-01-13T12:33:10.762Z,99186.06
2019-01-13T12:35:39.818Z,99164.00
2019-01-13T12:38:08.939Z,99176.19
2019-01-13T12:40:37.994Z,99164.59
2019-01-13T12:43:07.336Z,99157.05
2019-01-13T12:45:36.379Z,99144.09
2019-01-13T12:48:05.931Z,99120.09
2019-01-13T12:50:34.993Z,99140.95
2019-01-13T12:53:04.353Z,99133.09
2019-01-13T12:55:33.696Z,99128.54
2019-01-13T12:58:03.015Z,99121.66
2019-01-13T13:00:32.146Z,99115.97
2019-01-13T13:03:01.148Z,99105.58
2019-01-13T13:05:30.196Z,99104.68
2019-01-13T13:07:59.272Z,99077.15
2019-01-13T13:10:34.096Z,99078.34
2019-01-13T13:13:03.496Z,99076.01
2019-01-13T13:15:32.539Z,99063.81
2019-01-13T13:18:01.560Z,99057.70
2019-01-13T13:20:30.599Z,99065.55
2019-01-13T13:22:59.640Z,99054.48
2019-01-13T13:25:32.018Z,99045.67
2019-01-13T13:27:59.503Z,99047.31
2019-01-13T13:30:28.576Z,99046.73
2019-01-13T13:32:57.708Z,99034.09
2019-01-13T13:35:26.716Z,99019.37
2019-01-13T13:37:55.777Z,99026.63
2019-01-13T13:40:25.500Z,99014.22
2019-01-13T13:42:54.516Z,99008.38
2019-01-13T13:45:23.559Z,99004.20
2019-01-13T13:47:52.629Z,98993.95
2019-01-13T13:50:23.680Z,98994.70
2019-01-13T13:52:53.241Z,98997.02
2019-01-13T13:55:22.347Z,98994.92
2019-01-13T13:57:51.896Z,98998.59
2019-01-13T14:00:34.961Z,99006.22
2019-01-13T14:03:04.235Z,98988.59
2019-01-13T14:05:33.285Z,98982.35
2019-01-13T14:08:02.328Z,98986.47
2019-01-13T14:10:34.634Z,98965.84
2019-01-13T14:13:03.995Z,98974.14
2019-01-13T14:15:33.057Z,98966.14
2019-01-13T14:18:02.106Z,98975.16
2019-01-13T14:20:31.109Z,98977.41
2019-01-13T14:23:00.185Z,98969.77
2019-01-13T14:25:29.198Z,98962.52
2019-01-13T14:27:58.203Z,98945.92
2019-01-13T14:30:27.687Z,98937.96
2019-01-13T14:32:57.154Z,98944.38
2019-01-13T14:35:26.257Z,98930.73
2019-01-13T14:37:55.512Z,98939.84
2019-01-13T14:40:25.274Z,98942.22
2019-01-13T14:42:54.322Z,98925.00
2019-01-13T14:45:27.493Z,98930.75
2019-01-13T14:47:56.534Z,98933.97
2019-01-13T14:50:31.203Z,98922.25
2019-01-13T14:53:00.505Z,98910.72
2019-01-13T14:55:29.776Z,98910.58
2019-01-13T14:57:58.816Z,98915.86
2019-01-13T15:00:31.949Z,98918.63
2019-01-13T15:03:01.593Z,98903.48
2019-01-13T15:05:32.091Z,98903.41
2019-01-13T15:08:01.240Z,98909.54
2019-01-13T15:10:30.258Z,98896.20
2019-01-13T15:12:59.331Z,98894.03
2019-01-13T15:15:28.380Z,98879.61
2019-01-13T15:17:57.523Z,98881.41
2019-01-13T15:20:26.536Z,98891.09
2019-01-13T15:22:55.585Z,98880.92
2019-01-13T15:25:27.709Z,98867.13
2019-01-13T15:27:56.756Z,98874.88
2019-01-13T15:30:28.261Z,98865.77
2019-01-13T15:32:57.319Z,98861.61
2019-01-13T15:35:26.435Z,98854.83
2019-01-13T15:37:55.844Z,98868.91
2019-01-13T15:40:26.153Z,98861.03
2019-01-13T15:42:55.204Z,98862.60
2019-01-13T15:45:24.211Z,98871.17
2019-01-13T15:47:53.223Z,98868.33
2019-01-13T15:50:24.561Z,98864.36
2019-01-13T15:52:53.779Z,98850.44
2019-01-13T15:55:22.811Z,98862.20
2019-01-13T15:57:52.080Z,98818.34
2019-01-13T16:00:23.187Z,98864.36
2019-01-13T16:02:52.219Z,98850.27
2019-01-13T16:05:21.240Z,98852.30
2019-01-13T16:07:50.441Z,98844.99
2019-01-13T16:10:21.164Z,98848.77
2019-01-13T16:12:50.260Z,98852.20
2019-01-13T16:15:19.326Z,98843.50
2019-01-13T16:17:48.373Z,98841.68
2019-01-13T16:20:28.928Z,98852.30
2019-01-13T16:22:57.937Z,98826.40
2019-01-13T16:25:26.965Z,98837.61
2019-01-13T16:27:56.000Z,98817.98
2019-01-13T16:30:26.007Z,98835.97
2019-01-13T16:32:55.071Z,98816.31
2019-01-13T16:35:24.084Z,98805.73
2019-01-13T16:37:53.103Z,98804.53
2019-01-13T16:40:23.966Z,98816.38
2019-01-13T16:42:53.010Z,98827.78
2019-01-13T16:45:22.063Z,98838.30
2019-01-13T16:47:51.064Z,98822.95
2019-01-13T16:50:21.988Z,98853.50
2019-01-13T16:52:55.628Z,98832.06
2019-01-13T16:55:25.683Z,98834.39
2019-01-13T16:57:54.985Z,98838.78
2019-01-13T17:00:25.912Z,98830.87
2019-01-13T17:02:54.916Z,98845.94
2019-01-13T17:05:24.359Z,98847.13
2019-01-13T17:07:53.724Z,98838.47
2019-01-13T17:10:24.184Z,98847.00
2019-01-13T17:12:53.319Z,98829.08
2019-01-13T17:15:33.448Z,98840.05
2019-01-13T17:18:02.490Z,98819.77
2019-01-13T17:20:31.507Z,98823.29
2019-01-13T17:23:00.639Z,98823.16
2019-01-13T17:25:29.634Z,98841.08
2019-01-13T17:27:58.750Z,98836.76
2019-01-13T17:30:29.849Z,98838.81
2019-01-13T17:32:58.850Z,98829.02
2019-01-13T17:35:27.909Z,98823.50
2019-01-13T17:37:56.915Z,98828.41
2019-01-13T17:40:26.137Z,98834.09
2019-01-13T17:42:55.348Z,98812.23
2019-01-13T17:45:26.632Z,98829.32
2019-01-13T17:47:55.726Z,98835.28
2019-01-13T17:50:25.789Z,98828.95
2019-01-13T17:52:55.313Z,98825.73
2019-01-13T17:55:26.030Z,98826.38
2019-01-13T17:57:55.138Z,98824.84
2019-01-13T18:00:30.720Z,98829.16
2019-01-13T18:03:00.649Z,98827.92
2019-01-13T18:05:29.656Z,98837.82
2019-01-13T18:07:58.759Z,98841.38
2019-01-13T18:10:27.816Z,98840.35
2019-01-13T18:12:56.827Z,98821.05
2019-01-13T18:15:25.941Z,98839.47
2019-01-13T18:17:55.015Z,98830.66
2019-01-13T18:20:24.099Z,98827.11
2019-01-13T18:22:53.215Z,98820.08
2019-01-13T18:25:22.223Z,98831.83
2019-01-13T18:27:51.284Z,98829.42
2019-01-13T18:30:22.283Z,98843.73
2019-01-13T18:32:51.324Z,98819.19
2019-01-13T18:35:21.264Z,98823.66
2019-01-13T18:37:50.340Z,98836.94
2019-01-13T18:40:19.944Z,98835.30
2019-01-13T18:42:48.961Z,98861.72
2019-01-13T18:45:18.616Z,98849.56
2019-01-13T18:47:47.669Z,98847.27
2019-01-13T18:50:20.073Z,98861.56
2019-01-13T18:52:55.497Z,98861.50
2019-01-13T18:55:25.761Z,98874.16
2019-01-13T18:57:54.773Z,98884.73
2019-01-13T19:00:24.080Z,98881.69
2019-01-13T19:02:53.099Z,98898.94
2019-01-13T19:05:23.238Z,98896.50
2019-01-13T19:07:52.201Z,98914.29
2019-01-13T19:10:24.708Z,98904.67
2019-01-13T19:12:58.275Z,98902.70
2019-01-13T19:15:27.319Z,98918.78
2019-01-13T19:17:57.663Z,98917.95
2019-01-13T19:20:33.032Z,98912.70
2019-01-13T19:23:05.755Z,98878.97
2019-01-13T19:25:35.824Z,98916.81
2019-01-13T19:28:05.692Z,98936.25
2019-01-13T19:30:34.753Z,98935.48
2019-01-13T19:33:04.089Z,98940.97
2019-01-13T19:35:33.105Z,98946.98
2019-01-13T19:38:02.242Z,98954.31
2019-01-13T19:40:31.253Z,98951.08
2019-01-13T19:43:00.276Z,98946.32
2019-01-13T19:45:29.620Z,98909.38
2019-01-13T19:47:58.627Z,98959.06
2019-01-13T19:50:27.704Z,98964.23
2019-01-13T19:52:56.716Z,98972.94
2019-01-13T19:55:25.784Z,99004.44
2019-01-13T19:57:54.784Z,98999.22
2019-01-13T20:00:26.581Z,98967.42
2019-01-13T20:02:55.766Z,99017.20
2019-01-13T20:05:24.786Z,98997.52
2019-01-13T20:07:53.785Z,98994.39
2019-01-13T20:10:23.534Z,99006.20
2019-01-13T20:12:52.552Z,99013.13
2019-01-13T20:15:22.096Z,99032.31
2019-01-13T20:17:51.200Z,99003.73
2019-01-13T20:20:20.517Z,99007.86
2019-01-13T20:22:49.583Z,99036.76
2019-01-13T20:25:18.805Z,99066.88
2019-01-13T20:27:47.940Z,99053.68
2019-01-13T20:30:19.274Z,99067.69
2019-01-13T20:32:48.481Z,99034.11
2019-01-13T20:35:19.259Z,99058.27
2019-01-13T20:37:48.326Z,99072.95
2019-01-13T20:40:17.358Z,99012.08
2019-01-13T20:42:46.423Z,99083.75
2019-01-13T20:45:21.522Z,99087.93
2019-01-13T20:47:50.589Z,99092.11
2019-01-13T20:50:19.751Z,99083.65
2019-01-13T20:52:48.760Z,99111.45
2019-01-13T20:55:17.861Z,99099.73
2019-01-13T20:57:46.869Z,99117.37
2019-01-13T21:00:21.258Z,99120.29
2019-01-13T21:02:50.263Z,99119.13
2019-01-13T21:05:26.303Z,99133.22
2019-01-13T21:07:51.125Z,99126.18
2019-01-13T21:10:20.478Z,99149.06
2019-01-13T21:12:49.539Z,99134.88
2019-01-13T21:15:24.289Z,99140.92
2019-01-13T21:17:57.471Z,99174.67
2019-01-13T21:20:24.100Z,99173.51
2019-01-13T21:22:53.115Z,99158.50
2019-01-13T21:25:22.172Z,99173.60
2019-01-13T21:27:51.464Z,99175.44
2019-01-13T21:30:25.359Z,99170.87
2019-01-13T21:32:54.360Z,99171.75
2019-01-13T21:35:23.619Z,99200.00
2019-01-13T21:37:53.277Z,99191.70
2019-01-13T21:40:22.328Z,99181.25
2019-01-13T21:42:51.333Z,99211.45
2019-01-13T21:45:21.061Z,99198.09
2019-01-13T21:47:50.079Z,99216.12
2019-01-13T21:50:20.946Z,99221.61
2019-01-13T21:52:49.991Z,99219.42
2019-01-13T21:55:19.159Z,99236.62
2019-01-13T21:57:48.165Z,99260.34
2019-01-13T22:00:20.552Z,99244.89
2019-01-13T22:02:49.602Z,99254.42
2019-01-13T22:05:18.666Z,99262.48
2019-01-13T22:07:48.121Z,99270.19
2019-01-13T22:10:18.828Z,99305.02
2019-01-13T22:12:47.968Z,99279.64
2019-01-13T22:15:18.257Z,99284.81
2019-01-13T22:17:47.301Z,99295.74
2019-01-13T22:20:18.524Z,99302.31
2019-01-13T22:22:47.630Z,99309.23
2019-01-13T22:25:17.130Z,99330.78
2019-01-13T22:27:46.283Z,99345.39
2019-01-13T22:30:19.826Z,99342.39
2019-01-13T22:32:48.833Z,99328.40
2019-01-13T22:35:17.848Z,99337.27
2019-01-13T22:37:47.014Z,99340.83
2019-01-13T22:40:17.251Z,99349.73
2019-01-13T22:42:46.455Z,99364.99
2019-01-13T22:45:17.746Z,99369.64
2019-01-13T22:47:46.868Z,99377.73
2019-01-13T22:50:16.487Z,99380.80
2019-01-13T22:52:45.641Z,99402.14
2019-01-13T22:55:14.739Z,99398.86
2019-01-13T22:57:43.758Z,99401.73
2019-01-13T23:00:43.039Z,99392.59
2019-01-13T23:03:12.081Z,99416.16
2019-01-13T23:05:41.113Z,99423.88
2019-01-13T23:08:10.160Z,99437.71
2019-01-13T23:10:39.177Z,99427.26
2019-01-13T23:13:08.333Z,99444.52
2019-01-13T23:15:37.384Z,99440.41
2019-01-13T23:18:06.392Z,99439.48
2019-01-13T23:20:35.487Z,99461.38
2019-01-13T23:23:04.498Z,99494.14
2019-01-13T23:25:33.549Z,99476.45
2019-01-13T23:28:02.565Z,99485.34
2019-01-13T23:30:31.625Z,99498.49
2019-01-13T23:33:00.654Z,99516.15
2019-01-13T23:35:29.666Z,99504.41
2019-01-13T23:37:58.757Z,99523.31
2019-01-13T23:40:27.817Z,99540.31
2019-01-13T23:42:56.829Z,99543.27
2019-01-13T23:45:25.877Z,99546.62
2019-01-13T23:47:54.910Z,99563.45
2019-01-13T23:50:23.954Z,99569.42
2019-01-13T23:52:53.009Z,99566.93
2019-01-13T23:55:22.038Z,99559.46
2019-01-13T23:57:51.084Z,99575.82
